sensor_id;sensor_type;location;lat;lon;timestamp;P1;durP1;ratioP1;P2;durP2;ratioP2
57107;SDS011;42987;52.916;6.542;2023-08-20T00:01:45;8.52;;;4.72;;
57107;SDS011;42987;52.916;6.542;2023-08-20T00:04:11;7.57;;;4.32;;
57107;SDS011;42987;52.916;6.542;2023-08-20T00:06:39;7.28;;;3.88;;
57107;SDS011;42987;52.916;6.542;2023-08-20T00:09:08;8.32;;;4.25;;
57107;SDS011;42987;52.916;6.542;2023-08-20T00:11:33;9.18;;;4.32;;
57107;SDS011;42987;52.916;6.542;2023-08-20T00:13:59;7.75;;;4.28;;
57107;SDS011;42987;52.916;6.542;2023-08-20T00:16:25;5.57;;;3.50;;
57107;SDS011;42987;52.916;6.542;2023-08-20T00:18:51;8.55;;;4.68;;
57107;SDS011;42987;52.916;6.542;2023-08-20T00:21:17;10.15;;;5.07;;
57107;SDS011;42987;52.916;6.542;2023-08-20T00:23:43;8.32;;;4.85;;
57107;SDS011;42987;52.916;6.542;2023-08-20T00:26:09;7.40;;;4.35;;
57107;SDS011;42987;52.916;6.542;2023-08-20T00:28:36;7.00;;;3.97;;
57107;SDS011;42987;52.916;6.542;2023-08-20T00:31:03;5.57;;;3.75;;
57107;SDS011;42987;52.916;6.542;2023-08-20T00:33:35;7.78;;;4.18;;
57107;SDS011;42987;52.916;6.542;2023-08-20T00:36:00;8.40;;;4.35;;
57107;SDS011;42987;52.916;6.542;2023-08-20T00:38:26;9.90;;;4.90;;
57107;SDS011;42987;52.916;6.542;2023-08-20T00:40:52;9.25;;;5.18;;
57107;SDS011;42987;52.916;6.542;2023-08-20T00:43:18;7.28;;;4.13;;
57107;SDS011;42987;52.916;6.542;2023-08-20T00:45:43;10.55;;;5.47;;
57107;SDS011;42987;52.916;6.542;2023-08-20T00:48:12;8.00;;;4.95;;
57107;SDS011;42987;52.916;6.542;2023-08-20T00:50:39;6.97;;;4.80;;
57107;SDS011;42987;52.916;6.542;2023-08-20T00:53:06;8.93;;;5.03;;
57107;SDS011;42987;52.916;6.542;2023-08-20T00:55:36;10.05;;;5.53;;
57107;SDS011;42987;52.916;6.542;2023-08-20T00:58:06;10.38;;;6.13;;
57107;SDS011;42987;52.916;6.542;2023-08-20T01:00:34;7.97;;;5.55;;
57107;SDS011;42987;52.916;6.542;2023-08-20T01:03:00;4.50;;;3.72;;
57107;SDS011;42987;52.916;6.542;2023-08-20T01:05:26;5.60;;;3.50;;
57107;SDS011;42987;52.916;6.542;2023-08-20T01:13:19;7.32;;;3.35;;
57107;SDS011;42987;52.916;6.542;2023-08-20T01:15:45;5.95;;;3.70;;
57107;SDS011;42987;52.916;6.542;2023-08-20T01:18:10;6.00;;;4.30;;
57107;SDS011;42987;52.916;6.542;2023-08-20T01:20:39;6.93;;;5.95;;
57107;SDS011;42987;52.916;6.542;2023-08-20T01:23:24;9.57;;;6.03;;
57107;SDS011;42987;52.916;6.542;2023-08-20T01:29:05;6.22;;;4.57;;
57107;SDS011;42987;52.916;6.542;2023-08-20T01:31:35;6.05;;;4.43;;
57107;SDS011;42987;52.916;6.542;2023-08-20T01:34:01;6.72;;;4.63;;
57107;SDS011;42987;52.916;6.542;2023-08-20T01:36:27;10.45;;;6.07;;
57107;SDS011;42987;52.916;6.542;2023-08-20T01:38:53;9.90;;;6.35;;
57107;SDS011;42987;52.916;6.542;2023-08-20T01:41:19;8.27;;;5.93;;
57107;SDS011;42987;52.916;6.542;2023-08-20T01:43:45;7.13;;;6.03;;
57107;SDS011;42987;52.916;6.542;2023-08-20T01:46:10;7.35;;;4.57;;
57107;SDS011;42987;52.916;6.542;2023-08-20T01:48:37;6.13;;;4.70;;
57107;SDS011;42987;52.916;6.542;2023-08-20T01:51:03;10.85;;;7.72;;
57107;SDS011;42987;52.916;6.542;2023-08-20T01:53:29;9.13;;;7.68;;
57107;SDS011;42987;52.916;6.542;2023-08-20T01:55:55;9.32;;;5.72;;
57107;SDS011;42987;52.916;6.542;2023-08-20T01:58:21;8.07;;;5.90;;
57107;SDS011;42987;52.916;6.542;2023-08-20T02:00:46;9.25;;;6.25;;
57107;SDS011;42987;52.916;6.542;2023-08-20T02:03:12;11.13;;;7.18;;
57107;SDS011;42987;52.916;6.542;2023-08-20T02:05:38;8.63;;;7.32;;
57107;SDS011;42987;52.916;6.542;2023-08-20T02:08:04;9.07;;;7.43;;
57107;SDS011;42987;52.916;6.542;2023-08-20T02:10:30;8.27;;;7.30;;
57107;SDS011;42987;52.916;6.542;2023-08-20T02:12:56;18.75;;;12.93;;
57107;SDS011;42987;52.916;6.542;2023-08-20T02:15:21;13.10;;;8.77;;
57107;SDS011;42987;52.916;6.542;2023-08-20T02:17:50;10.65;;;8.70;;
57107;SDS011;42987;52.916;6.542;2023-08-20T02:20:15;20.83;;;14.98;;
57107;SDS011;42987;52.916;6.542;2023-08-20T02:22:44;27.25;;;17.35;;
57107;SDS011;42987;52.916;6.542;2023-08-20T02:25:10;17.40;;;12.75;;
57107;SDS011;42987;52.916;6.542;2023-08-20T02:27:36;12.73;;;10.10;;
57107;SDS011;42987;52.916;6.542;2023-08-20T02:30:05;15.40;;;11.95;;
57107;SDS011;42987;52.916;6.542;2023-08-20T02:32:34;15.45;;;11.30;;
57107;SDS011;42987;52.916;6.542;2023-08-20T02:35:00;12.93;;;10.52;;
57107;SDS011;42987;52.916;6.542;2023-08-20T02:37:26;11.77;;;9.95;;
57107;SDS011;42987;52.916;6.542;2023-08-20T02:39:52;13.93;;;11.40;;
57107;SDS011;42987;52.916;6.542;2023-08-20T02:42:18;11.23;;;8.65;;
57107;SDS011;42987;52.916;6.542;2023-08-20T02:44:43;11.38;;;10.10;;
57107;SDS011;42987;52.916;6.542;2023-08-20T02:47:09;10.68;;;8.43;;
57107;SDS011;42987;52.916;6.542;2023-08-20T02:49:35;7.63;;;6.38;;
57107;SDS011;42987;52.916;6.542;2023-08-20T02:52:00;7.55;;;6.85;;
57107;SDS011;42987;52.916;6.542;2023-08-20T02:54:28;8.48;;;6.95;;
57107;SDS011;42987;52.916;6.542;2023-08-20T02:56:54;10.25;;;8.57;;
57107;SDS011;42987;52.916;6.542;2023-08-20T02:59:20;9.23;;;8.32;;
57107;SDS011;42987;52.916;6.542;2023-08-20T03:01:45;11.77;;;9.77;;
57107;SDS011;42987;52.916;6.542;2023-08-20T03:04:11;11.43;;;9.73;;
57107;SDS011;42987;52.916;6.542;2023-08-20T03:06:40;14.02;;;10.50;;
57107;SDS011;42987;52.916;6.542;2023-08-20T03:09:06;10.48;;;8.52;;
57107;SDS011;42987;52.916;6.542;2023-08-20T03:11:31;10.02;;;8.38;;
57107;SDS011;42987;52.916;6.542;2023-08-20T03:13:57;11.52;;;9.18;;
57107;SDS011;42987;52.916;6.542;2023-08-20T03:16:23;11.00;;;9.77;;
57107;SDS011;42987;52.916;6.542;2023-08-20T03:18:49;15.25;;;10.20;;
57107;SDS011;42987;52.916;6.542;2023-08-20T03:21:15;12.00;;;8.63;;
57107;SDS011;42987;52.916;6.542;2023-08-20T03:23:40;11.05;;;8.73;;
57107;SDS011;42987;52.916;6.542;2023-08-20T03:26:09;12.15;;;10.38;;
57107;SDS011;42987;52.916;6.542;2023-08-20T03:28:34;11.77;;;9.73;;
57107;SDS011;42987;52.916;6.542;2023-08-20T03:31:00;13.32;;;10.55;;
57107;SDS011;42987;52.916;6.542;2023-08-20T03:33:27;16.88;;;11.52;;
57107;SDS011;42987;52.916;6.542;2023-08-20T03:35:53;12.10;;;10.05;;
57107;SDS011;42987;52.916;6.542;2023-08-20T03:38:18;11.70;;;10.40;;
57107;SDS011;42987;52.916;6.542;2023-08-20T03:40:44;13.88;;;11.95;;
57107;SDS011;42987;52.916;6.542;2023-08-20T03:43:10;14.07;;;11.98;;
57107;SDS011;42987;52.916;6.542;2023-08-20T03:45:36;12.73;;;11.45;;
57107;SDS011;42987;52.916;6.542;2023-08-20T03:48:01;13.25;;;11.52;;
57107;SDS011;42987;52.916;6.542;2023-08-20T03:50:27;15.30;;;11.13;;
57107;SDS011;42987;52.916;6.542;2023-08-20T03:52:53;12.65;;;10.75;;
57107;SDS011;42987;52.916;6.542;2023-08-20T03:55:19;12.70;;;10.70;;
57107;SDS011;42987;52.916;6.542;2023-08-20T03:57:45;16.45;;;14.20;;
57107;SDS011;42987;52.916;6.542;2023-08-20T04:00:10;14.70;;;12.18;;
57107;SDS011;42987;52.916;6.542;2023-08-20T04:02:40;14.73;;;13.05;;
57107;SDS011;42987;52.916;6.542;2023-08-20T04:05:06;15.73;;;14.10;;
57107;SDS011;42987;52.916;6.542;2023-08-20T04:07:35;13.85;;;12.43;;
57107;SDS011;42987;52.916;6.542;2023-08-20T04:10:01;16.33;;;13.00;;
57107;SDS011;42987;52.916;6.542;2023-08-20T04:12:28;15.32;;;12.98;;
57107;SDS011;42987;52.916;6.542;2023-08-20T04:14:54;16.48;;;14.40;;
57107;SDS011;42987;52.916;6.542;2023-08-20T04:17:20;14.80;;;12.98;;
57107;SDS011;42987;52.916;6.542;2023-08-20T04:19:45;15.75;;;14.05;;
57107;SDS011;42987;52.916;6.542;2023-08-20T04:22:11;19.33;;;16.33;;
57107;SDS011;42987;52.916;6.542;2023-08-20T04:24:40;15.02;;;13.60;;
57107;SDS011;42987;52.916;6.542;2023-08-20T04:27:06;14.40;;;12.90;;
57107;SDS011;42987;52.916;6.542;2023-08-20T04:29:32;20.65;;;16.45;;
57107;SDS011;42987;52.916;6.542;2023-08-20T04:31:58;16.48;;;14.75;;
57107;SDS011;42987;52.916;6.542;2023-08-20T04:34:23;16.55;;;14.80;;
57107;SDS011;42987;52.916;6.542;2023-08-20T04:36:49;15.50;;;14.00;;
57107;SDS011;42987;52.916;6.542;2023-08-20T04:39:17;16.20;;;14.57;;
57107;SDS011;42987;52.916;6.542;2023-08-20T04:41:43;16.27;;;14.68;;
57107;SDS011;42987;52.916;6.542;2023-08-20T04:44:09;17.02;;;14.75;;
57107;SDS011;42987;52.916;6.542;2023-08-20T04:46:35;13.23;;;11.93;;
57107;SDS011;42987;52.916;6.542;2023-08-20T04:49:00;14.70;;;13.25;;
57107;SDS011;42987;52.916;6.542;2023-08-20T04:51:26;14.88;;;13.38;;
57107;SDS011;42987;52.916;6.542;2023-08-20T04:53:52;14.05;;;12.65;;
57107;SDS011;42987;52.916;6.542;2023-08-20T04:56:21;17.13;;;14.88;;
57107;SDS011;42987;52.916;6.542;2023-08-20T04:58:46;15.57;;;14.13;;
57107;SDS011;42987;52.916;6.542;2023-08-20T05:01:15;13.68;;;12.27;;
57107;SDS011;42987;52.916;6.542;2023-08-20T05:03:44;14.70;;;13.20;;
57107;SDS011;42987;52.916;6.542;2023-08-20T05:06:10;12.80;;;11.50;;
57107;SDS011;42987;52.916;6.542;2023-08-20T05:08:35;14.18;;;12.77;;
57107;SDS011;42987;52.916;6.542;2023-08-20T05:11:01;14.38;;;13.00;;
57107;SDS011;42987;52.916;6.542;2023-08-20T05:13:28;13.13;;;11.85;;
57107;SDS011;42987;52.916;6.542;2023-08-20T05:15:54;13.25;;;11.80;;
57107;SDS011;42987;52.916;6.542;2023-08-20T05:18:19;13.30;;;11.73;;
57107;SDS011;42987;52.916;6.542;2023-08-20T05:20:45;10.88;;;9.82;;
57107;SDS011;42987;52.916;6.542;2023-08-20T05:23:11;11.57;;;9.55;;
57107;SDS011;42987;52.916;6.542;2023-08-20T05:25:39;10.20;;;9.18;;
57107;SDS011;42987;52.916;6.542;2023-08-20T05:28:05;12.05;;;9.30;;
57107;SDS011;42987;52.916;6.542;2023-08-20T05:30:31;10.77;;;9.80;;
57107;SDS011;42987;52.916;6.542;2023-08-20T05:32:57;10.82;;;9.73;;
57107;SDS011;42987;52.916;6.542;2023-08-20T05:35:22;15.13;;;12.70;;
57107;SDS011;42987;52.916;6.542;2023-08-20T05:37:48;15.32;;;12.82;;
57107;SDS011;42987;52.916;6.542;2023-08-20T05:40:14;15.05;;;12.82;;
57107;SDS011;42987;52.916;6.542;2023-08-20T05:42:40;16.25;;;14.65;;
57107;SDS011;42987;52.916;6.542;2023-08-20T05:45:05;17.58;;;15.90;;
57107;SDS011;42987;52.916;6.542;2023-08-20T05:47:32;18.08;;;16.25;;
57107;SDS011;42987;52.916;6.542;2023-08-20T05:49:57;20.83;;;18.60;;
57107;SDS011;42987;52.916;6.542;2023-08-20T05:52:23;22.17;;;18.88;;
57107;SDS011;42987;52.916;6.542;2023-08-20T05:54:49;25.98;;;21.50;;
57107;SDS011;42987;52.916;6.542;2023-08-20T05:57:15;21.60;;;19.17;;
57107;SDS011;42987;52.916;6.542;2023-08-20T05:59:40;24.30;;;20.25;;
57107;SDS011;42987;52.916;6.542;2023-08-20T06:02:06;23.70;;;21.20;;
57107;SDS011;42987;52.916;6.542;2023-08-20T06:04:35;24.25;;;20.38;;
57107;SDS011;42987;52.916;6.542;2023-08-20T06:07:03;26.33;;;22.85;;
57107;SDS011;42987;52.916;6.542;2023-08-20T06:09:29;25.58;;;20.00;;
57107;SDS011;42987;52.916;6.542;2023-08-20T06:11:54;22.30;;;19.88;;
57107;SDS011;42987;52.916;6.542;2023-08-20T06:14:21;26.98;;;23.35;;
57107;SDS011;42987;52.916;6.542;2023-08-20T06:16:47;21.23;;;19.15;;
57107;SDS011;42987;52.916;6.542;2023-08-20T06:19:12;21.48;;;19.25;;
57107;SDS011;42987;52.916;6.542;2023-08-20T06:21:38;21.70;;;18.70;;
57107;SDS011;42987;52.916;6.542;2023-08-20T06:24:04;21.02;;;18.77;;
57107;SDS011;42987;52.916;6.542;2023-08-20T06:26:33;19.63;;;17.52;;
57107;SDS011;42987;52.916;6.542;2023-08-20T06:28:59;23.42;;;17.90;;
57107;SDS011;42987;52.916;6.542;2023-08-20T06:31:25;20.65;;;16.25;;
57107;SDS011;42987;52.916;6.542;2023-08-20T06:33:51;19.33;;;16.60;;
57107;SDS011;42987;52.916;6.542;2023-08-20T06:36:16;20.90;;;15.52;;
57107;SDS011;42987;52.916;6.542;2023-08-20T06:38:42;20.10;;;15.60;;
57107;SDS011;42987;52.916;6.542;2023-08-20T06:41:08;19.85;;;15.73;;
57107;SDS011;42987;52.916;6.542;2023-08-20T06:43:34;15.70;;;13.98;;
57107;SDS011;42987;52.916;6.542;2023-08-20T06:45:59;18.77;;;14.90;;
57107;SDS011;42987;52.916;6.542;2023-08-20T06:48:25;17.27;;;12.95;;
57107;SDS011;42987;52.916;6.542;2023-08-20T06:50:52;16.00;;;12.15;;
57107;SDS011;42987;52.916;6.542;2023-08-20T06:53:20;17.40;;;13.15;;
57107;SDS011;42987;52.916;6.542;2023-08-20T06:55:46;14.85;;;11.95;;
57107;SDS011;42987;52.916;6.542;2023-08-20T06:58:12;17.27;;;11.82;;
57107;SDS011;42987;52.916;6.542;2023-08-20T07:00:38;15.82;;;10.90;;
57107;SDS011;42987;52.916;6.542;2023-08-20T07:03:06;14.77;;;10.48;;
57107;SDS011;42987;52.916;6.542;2023-08-20T07:05:32;18.35;;;10.88;;
57107;SDS011;42987;52.916;6.542;2023-08-20T07:07:58;18.13;;;11.05;;
57107;SDS011;42987;52.916;6.542;2023-08-20T07:10:26;14.13;;;10.68;;
57107;SDS011;42987;52.916;6.542;2023-08-20T07:12:53;12.40;;;9.00;;
57107;SDS011;42987;52.916;6.542;2023-08-20T07:15:18;14.48;;;9.07;;
57107;SDS011;42987;52.916;6.542;2023-08-20T07:17:44;18.13;;;9.30;;
57107;SDS011;42987;52.916;6.542;2023-08-20T07:20:10;13.55;;;8.70;;
57107;SDS011;42987;52.916;6.542;2023-08-20T07:22:36;13.95;;;8.68;;
57107;SDS011;42987;52.916;6.542;2023-08-20T07:25:08;14.20;;;7.68;;
57107;SDS011;42987;52.916;6.542;2023-08-20T07:27:34;15.15;;;7.82;;
57107;SDS011;42987;52.916;6.542;2023-08-20T07:29:59;13.38;;;7.43;;
57107;SDS011;42987;52.916;6.542;2023-08-20T07:32:25;11.68;;;6.93;;
57107;SDS011;42987;52.916;6.542;2023-08-20T07:34:51;13.25;;;6.82;;
57107;SDS011;42987;52.916;6.542;2023-08-20T07:37:17;15.15;;;6.80;;
57107;SDS011;42987;52.916;6.542;2023-08-20T07:39:43;12.18;;;7.00;;
57107;SDS011;42987;52.916;6.542;2023-08-20T07:42:09;14.57;;;6.82;;
57107;SDS011;42987;52.916;6.542;2023-08-20T07:44:36;13.57;;;6.28;;
57107;SDS011;42987;52.916;6.542;2023-08-20T07:47:01;13.05;;;7.03;;
57107;SDS011;42987;52.916;6.542;2023-08-20T07:49:27;13.50;;;5.85;;
57107;SDS011;42987;52.916;6.542;2023-08-20T07:51:53;9.85;;;5.93;;
57107;SDS011;42987;52.916;6.542;2023-08-20T07:54:21;14.25;;;5.50;;
57107;SDS011;42987;52.916;6.542;2023-08-20T07:56:46;12.38;;;5.75;;
57107;SDS011;42987;52.916;6.542;2023-08-20T07:59:12;11.57;;;5.65;;
57107;SDS011;42987;52.916;6.542;2023-08-20T08:01:38;12.38;;;5.50;;
57107;SDS011;42987;52.916;6.542;2023-08-20T08:04:04;10.93;;;4.63;;
57107;SDS011;42987;52.916;6.542;2023-08-20T08:06:30;14.23;;;5.68;;
57107;SDS011;42987;52.916;6.542;2023-08-20T08:08:55;12.57;;;4.28;;
57107;SDS011;42987;52.916;6.542;2023-08-20T08:11:21;10.50;;;4.18;;
57107;SDS011;42987;52.916;6.542;2023-08-20T08:13:47;15.40;;;4.47;;
57107;SDS011;42987;52.916;6.542;2023-08-20T08:16:16;12.48;;;5.10;;
57107;SDS011;42987;52.916;6.542;2023-08-20T08:18:42;11.50;;;3.95;;
57107;SDS011;42987;52.916;6.542;2023-08-20T08:21:08;10.65;;;3.92;;
57107;SDS011;42987;52.916;6.542;2023-08-20T08:23:34;10.10;;;3.10;;
57107;SDS011;42987;52.916;6.542;2023-08-20T08:26:00;9.65;;;2.92;;
57107;SDS011;42987;52.916;6.542;2023-08-20T08:28:25;11.38;;;2.90;;
57107;SDS011;42987;52.916;6.542;2023-08-20T08:30:51;9.38;;;2.58;;
57107;SDS011;42987;52.916;6.542;2023-08-20T08:33:17;9.65;;;2.60;;
57107;SDS011;42987;52.916;6.542;2023-08-20T08:35:43;9.18;;;2.65;;
57107;SDS011;42987;52.916;6.542;2023-08-20T08:38:09;9.48;;;2.90;;
57107;SDS011;42987;52.916;6.542;2023-08-20T08:40:34;10.73;;;2.72;;
57107;SDS011;42987;52.916;6.542;2023-08-20T08:43:00;11.20;;;3.00;;
57107;SDS011;42987;52.916;6.542;2023-08-20T08:45:27;9.20;;;3.05;;
57107;SDS011;42987;52.916;6.542;2023-08-20T08:47:54;11.73;;;3.15;;
57107;SDS011;42987;52.916;6.542;2023-08-20T08:50:20;12.00;;;3.28;;
57107;SDS011;42987;52.916;6.542;2023-08-20T08:52:46;9.77;;;2.95;;
57107;SDS011;42987;52.916;6.542;2023-08-20T08:55:16;10.60;;;2.90;;
57107;SDS011;42987;52.916;6.542;2023-08-20T08:57:42;13.73;;;2.80;;
57107;SDS011;42987;52.916;6.542;2023-08-20T09:00:10;7.65;;;2.75;;
57107;SDS011;42987;52.916;6.542;2023-08-20T09:02:40;11.32;;;3.13;;
57107;SDS011;42987;52.916;6.542;2023-08-20T09:05:09;9.20;;;2.55;;
57107;SDS011;42987;52.916;6.542;2023-08-20T09:07:35;6.55;;;2.50;;
57107;SDS011;42987;52.916;6.542;2023-08-20T09:10:06;9.77;;;2.22;;
57107;SDS011;42987;52.916;6.542;2023-08-20T09:12:41;8.90;;;2.70;;
57107;SDS011;42987;52.916;6.542;2023-08-20T09:15:11;7.40;;;2.00;;
57107;SDS011;42987;52.916;6.542;2023-08-20T09:17:40;7.95;;;2.17;;
57107;SDS011;42987;52.916;6.542;2023-08-20T09:20:09;5.88;;;1.80;;
57107;SDS011;42987;52.916;6.542;2023-08-20T09:22:36;7.40;;;1.92;;
57107;SDS011;42987;52.916;6.542;2023-08-20T09:27:31;6.70;;;1.80;;
57107;SDS011;42987;52.916;6.542;2023-08-20T09:30:05;7.50;;;2.08;;
57107;SDS011;42987;52.916;6.542;2023-08-20T09:32:32;8.38;;;2.20;;
57107;SDS011;42987;52.916;6.542;2023-08-20T09:34:57;7.07;;;1.70;;
57107;SDS011;42987;52.916;6.542;2023-08-20T09:37:24;7.78;;;2.00;;
57107;SDS011;42987;52.916;6.542;2023-08-20T09:39:50;8.27;;;2.60;;
57107;SDS011;42987;52.916;6.542;2023-08-20T09:42:16;8.18;;;2.10;;
57107;SDS011;42987;52.916;6.542;2023-08-20T09:44:46;6.55;;;2.55;;
57107;SDS011;42987;52.916;6.542;2023-08-20T09:47:16;7.97;;;2.28;;
57107;SDS011;42987;52.916;6.542;2023-08-20T09:49:49;8.60;;;2.22;;
57107;SDS011;42987;52.916;6.542;2023-08-20T09:52:39;7.50;;;2.83;;
57107;SDS011;42987;52.916;6.542;2023-08-20T09:55:16;7.18;;;2.03;;
57107;SDS011;42987;52.916;6.542;2023-08-20T09:57:44;6.72;;;1.88;;
57107;SDS011;42987;52.916;6.542;2023-08-20T10:00:12;7.07;;;2.00;;
57107;SDS011;42987;52.916;6.542;2023-08-20T10:02:39;7.03;;;1.98;;
57107;SDS011;42987;52.916;6.542;2023-08-20T10:05:07;7.88;;;1.63;;
57107;SDS011;42987;52.916;6.542;2023-08-20T10:07:34;8.73;;;1.75;;
57107;SDS011;42987;52.916;6.542;2023-08-20T10:10:01;4.82;;;1.45;;
57107;SDS011;42987;52.916;6.542;2023-08-20T10:12:31;5.35;;;1.70;;
57107;SDS011;42987;52.916;6.542;2023-08-20T10:15:00;5.78;;;1.83;;
57107;SDS011;42987;52.916;6.542;2023-08-20T10:17:28;8.90;;;1.30;;
57107;SDS011;42987;52.916;6.542;2023-08-20T10:19:56;5.97;;;1.70;;
57107;SDS011;42987;52.916;6.542;2023-08-20T10:22:25;7.13;;;1.63;;
57107;SDS011;42987;52.916;6.542;2023-08-20T10:24:58;5.35;;;1.05;;
57107;SDS011;42987;52.916;6.542;2023-08-20T10:27:34;5.40;;;1.60;;
57107;SDS011;42987;52.916;6.542;2023-08-20T10:30:01;5.47;;;1.35;;
57107;SDS011;42987;52.916;6.542;2023-08-20T10:32:52;7.20;;;1.67;;
57107;SDS011;42987;52.916;6.542;2023-08-20T10:35:23;7.28;;;1.80;;
57107;SDS011;42987;52.916;6.542;2023-08-20T10:40:55;5.18;;;1.23;;
57107;SDS011;42987;52.916;6.542;2023-08-20T10:46:18;6.20;;;1.67;;
57107;SDS011;42987;52.916;6.542;2023-08-20T10:59:27;4.97;;;1.40;;
57107;SDS011;42987;52.916;6.542;2023-08-20T11:01:55;4.25;;;1.20;;
57107;SDS011;42987;52.916;6.542;2023-08-20T11:04:23;5.70;;;1.15;;
57107;SDS011;42987;52.916;6.542;2023-08-20T11:06:52;3.72;;;0.95;;
57107;SDS011;42987;52.916;6.542;2023-08-20T11:09:23;4.78;;;1.40;;
57107;SDS011;42987;52.916;6.542;2023-08-20T11:11:50;6.38;;;1.30;;
57107;SDS011;42987;52.916;6.542;2023-08-20T11:14:17;5.03;;;1.30;;
57107;SDS011;42987;52.916;6.542;2023-08-20T11:16:47;7.38;;;1.70;;
57107;SDS011;42987;52.916;6.542;2023-08-20T11:19:14;4.30;;;1.10;;
57107;SDS011;42987;52.916;6.542;2023-08-20T11:21:44;3.92;;;1.10;;
57107;SDS011;42987;52.916;6.542;2023-08-20T11:24:11;7.05;;;1.38;;
57107;SDS011;42987;52.916;6.542;2023-08-20T11:26:41;4.80;;;1.33;;
57107;SDS011;42987;52.916;6.542;2023-08-20T11:29:11;2.10;;;0.70;;
57107;SDS011;42987;52.916;6.542;2023-08-20T11:31:38;4.50;;;1.20;;
57107;SDS011;42987;52.916;6.542;2023-08-20T11:34:05;6.47;;;1.67;;
57107;SDS011;42987;52.916;6.542;2023-08-20T11:36:31;4.53;;;0.80;;
57107;SDS011;42987;52.916;6.542;2023-08-20T11:38:57;7.80;;;1.20;;
57107;SDS011;42987;52.916;6.542;2023-08-20T11:41:23;6.43;;;1.42;;
57107;SDS011;42987;52.916;6.542;2023-08-20T11:43:50;3.58;;;1.02;;
57107;SDS011;42987;52.916;6.542;2023-08-20T11:46:18;5.93;;;1.30;;
57107;SDS011;42987;52.916;6.542;2023-08-20T11:51:41;4.78;;;1.20;;
57107;SDS011;42987;52.916;6.542;2023-08-20T11:54:12;4.07;;;1.10;;
57107;SDS011;42987;52.916;6.542;2023-08-20T11:59:15;3.85;;;0.85;;
57107;SDS011;42987;52.916;6.542;2023-08-20T12:01:42;4.93;;;0.98;;
57107;SDS011;42987;52.916;6.542;2023-08-20T12:04:09;3.13;;;0.80;;
57107;SDS011;42987;52.916;6.542;2023-08-20T12:06:36;4.85;;;1.02;;
57107;SDS011;42987;52.916;6.542;2023-08-20T12:09:21;3.88;;;0.80;;
57107;SDS011;42987;52.916;6.542;2023-08-20T12:11:51;3.08;;;0.60;;
57107;SDS011;42987;52.916;6.542;2023-08-20T12:14:20;5.15;;;0.98;;
57107;SDS011;42987;52.916;6.542;2023-08-20T12:16:49;4.05;;;0.88;;
57107;SDS011;42987;52.916;6.542;2023-08-20T12:19:18;4.60;;;1.00;;
57107;SDS011;42987;52.916;6.542;2023-08-20T12:21:44;4.78;;;1.00;;
57107;SDS011;42987;52.916;6.542;2023-08-20T12:24:14;4.45;;;0.90;;
57107;SDS011;42987;52.916;6.542;2023-08-20T12:26:40;5.95;;;1.08;;
57107;SDS011;42987;52.916;6.542;2023-08-20T12:29:06;5.80;;;1.05;;
57107;SDS011;42987;52.916;6.542;2023-08-20T12:31:35;5.15;;;1.13;;
57107;SDS011;42987;52.916;6.542;2023-08-20T12:34:01;4.43;;;1.27;;
57107;SDS011;42987;52.916;6.542;2023-08-20T12:36:27;3.67;;;0.90;;
57107;SDS011;42987;52.916;6.542;2023-08-20T12:38:54;5.25;;;1.10;;
57107;SDS011;42987;52.916;6.542;2023-08-20T12:41:20;4.07;;;0.93;;
57107;SDS011;42987;52.916;6.542;2023-08-20T12:43:46;4.80;;;1.00;;
57107;SDS011;42987;52.916;6.542;2023-08-20T12:46:12;3.28;;;0.80;;
57107;SDS011;42987;52.916;6.542;2023-08-20T12:48:38;3.78;;;1.00;;
57107;SDS011;42987;52.916;6.542;2023-08-20T12:51:05;4.75;;;1.05;;
57107;SDS011;42987;52.916;6.542;2023-08-20T12:53:31;4.55;;;1.10;;
57107;SDS011;42987;52.916;6.542;2023-08-20T12:55:57;5.10;;;1.20;;
57107;SDS011;42987;52.916;6.542;2023-08-20T12:58:23;5.47;;;1.42;;
57107;SDS011;42987;52.916;6.542;2023-08-20T13:00:50;4.63;;;1.23;;
57107;SDS011;42987;52.916;6.542;2023-08-20T13:03:19;4.72;;;0.80;;
57107;SDS011;42987;52.916;6.542;2023-08-20T13:05:48;4.40;;;0.77;;
57107;SDS011;42987;52.916;6.542;2023-08-20T13:08:14;5.10;;;0.98;;
57107;SDS011;42987;52.916;6.542;2023-08-20T13:10:41;4.10;;;1.35;;
57107;SDS011;42987;52.916;6.542;2023-08-20T13:13:13;3.65;;;0.90;;
57107;SDS011;42987;52.916;6.542;2023-08-20T13:15:40;4.22;;;1.00;;
57107;SDS011;42987;52.916;6.542;2023-08-20T13:18:06;4.20;;;1.27;;
57107;SDS011;42987;52.916;6.542;2023-08-20T13:20:35;2.72;;;0.75;;
57107;SDS011;42987;52.916;6.542;2023-08-20T13:23:01;4.05;;;1.20;;
57107;SDS011;42987;52.916;6.542;2023-08-20T13:25:27;4.72;;;1.00;;
57107;SDS011;42987;52.916;6.542;2023-08-20T13:27:53;6.72;;;2.35;;
57107;SDS011;42987;52.916;6.542;2023-08-20T13:30:19;4.97;;;1.20;;
57107;SDS011;42987;52.916;6.542;2023-08-20T13:32:44;5.45;;;1.73;;
57107;SDS011;42987;52.916;6.542;2023-08-20T13:35:10;6.05;;;1.63;;
57107;SDS011;42987;52.916;6.542;2023-08-20T13:37:36;5.47;;;1.63;;
57107;SDS011;42987;52.916;6.542;2023-08-20T13:40:02;4.82;;;1.55;;
57107;SDS011;42987;52.916;6.542;2023-08-20T13:42:29;5.00;;;1.63;;
57107;SDS011;42987;52.916;6.542;2023-08-20T13:44:57;6.15;;;2.05;;
57107;SDS011;42987;52.916;6.542;2023-08-20T13:47:23;7.20;;;2.00;;
57107;SDS011;42987;52.916;6.542;2023-08-20T13:49:49;6.25;;;2.15;;
57107;SDS011;42987;52.916;6.542;2023-08-20T13:52:14;7.45;;;2.20;;
57107;SDS011;42987;52.916;6.542;2023-08-20T13:54:40;4.47;;;2.05;;
57107;SDS011;42987;52.916;6.542;2023-08-20T13:57:06;7.32;;;1.75;;
57107;SDS011;42987;52.916;6.542;2023-08-20T13:59:32;3.15;;;1.50;;
57107;SDS011;42987;52.916;6.542;2023-08-20T14:01:58;4.40;;;1.80;;
57107;SDS011;42987;52.916;6.542;2023-08-20T14:04:24;3.92;;;1.30;;
57107;SDS011;42987;52.916;6.542;2023-08-20T14:06:49;4.72;;;1.88;;
57107;SDS011;42987;52.916;6.542;2023-08-20T14:09:18;5.57;;;1.73;;
57107;SDS011;42987;52.916;6.542;2023-08-20T14:11:44;4.47;;;1.77;;
57107;SDS011;42987;52.916;6.542;2023-08-20T14:14:10;4.60;;;1.50;;
57107;SDS011;42987;52.916;6.542;2023-08-20T14:16:36;4.88;;;1.65;;
57107;SDS011;42987;52.916;6.542;2023-08-20T14:19:05;5.25;;;1.80;;
57107;SDS011;42987;52.916;6.542;2023-08-20T14:21:33;4.82;;;1.60;;
57107;SDS011;42987;52.916;6.542;2023-08-20T14:23:59;5.18;;;1.50;;
57107;SDS011;42987;52.916;6.542;2023-08-20T14:26:25;4.72;;;1.90;;
57107;SDS011;42987;52.916;6.542;2023-08-20T14:28:54;3.35;;;1.05;;
57107;SDS011;42987;52.916;6.542;2023-08-20T14:31:20;4.47;;;1.30;;
57107;SDS011;42987;52.916;6.542;2023-08-20T14:33:46;3.55;;;1.10;;
57107;SDS011;42987;52.916;6.542;2023-08-20T14:36:15;5.78;;;1.17;;
57107;SDS011;42987;52.916;6.542;2023-08-20T14:38:41;4.25;;;1.30;;
57107;SDS011;42987;52.916;6.542;2023-08-20T14:41:10;4.50;;;1.30;;
57107;SDS011;42987;52.916;6.542;2023-08-20T14:43:36;5.75;;;1.30;;
57107;SDS011;42987;52.916;6.542;2023-08-20T14:46:02;3.08;;;1.25;;
57107;SDS011;42987;52.916;6.542;2023-08-20T14:48:27;5.28;;;1.48;;
57107;SDS011;42987;52.916;6.542;2023-08-20T14:50:53;2.95;;;1.20;;
57107;SDS011;42987;52.916;6.542;2023-08-20T14:53:19;2.90;;;1.10;;
57107;SDS011;42987;52.916;6.542;2023-08-20T14:55:45;3.45;;;1.00;;
57107;SDS011;42987;52.916;6.542;2023-08-20T14:58:11;3.72;;;0.93;;
57107;SDS011;42987;52.916;6.542;2023-08-20T15:00:38;3.88;;;1.15;;
57107;SDS011;42987;52.916;6.542;2023-08-20T15:03:04;3.72;;;0.77;;
57107;SDS011;42987;52.916;6.542;2023-08-20T15:05:31;4.78;;;0.90;;
57107;SDS011;42987;52.916;6.542;2023-08-20T15:07:57;4.63;;;0.63;;
57107;SDS011;42987;52.916;6.542;2023-08-20T15:10:25;4.60;;;1.20;;